Time;durP1;ratioP1;P1;durP2;ratioP2;P2;SDS_P1;SDS_P2;PMS_P1;PMS_P2;Temp;Humidity;BMP_temperature;BMP_pressure;BME280_temperature;BME280_humidity;BME280_pressure;Samples;Min_cycle;Max_cycle;Signal;HPM_P1;HPM_P2
2024/02/07 00:01:08;;;;;;;3.50;1.30;;;;;;;7.30;67.78;97297.96;108841;1263;72694;-26
2024/02/07 00:03:36;;;;;;;6.40;2.00;;;;;;;7.17;68.50;97299.39;108848;1262;58976;-26
2024/02/07 00:06:04;;;;;;;2.40;1.50;;;;;;;7.26;68.04;97288.18;108760;1263;58877;-27
2024/02/07 00:08:32;;;;;;;4.20;1.60;;;;;;;7.65;66.96;97288.61;108850;1261;71813;-27
2024/02/07 00:11:00;;;;;;;2.70;1.30;;;;;;;8.00;65.57;97281.00;108841;1267;73128;-26
2024/02/07 00:13:28;;;;;;;2.90;1.70;;;;;;;7.93;65.38;97279.49;108721;1263;71765;-27
2024/02/07 00:15:55;;;;;;;4.80;1.80;;;;;;;7.77;65.92;97281.91;108833;1264;59074;-26
2024/02/07 00:18:23;;;;;;;5.20;1.50;;;;;;;7.53;66.64;97274.15;108839;1263;58835;-27
2024/02/07 00:20:51;;;;;;;3.60;1.80;;;;;;;7.50;66.79;97271.34;108818;1266;70796;-27
2024/02/07 00:23:19;;;;;;;3.80;1.70;;;;;;;7.58;66.63;97272.15;108833;1261;74299;-27
2024/02/07 00:25:46;;;;;;;3.10;1.70;;;;;;;7.63;66.28;97273.06;108796;1263;72655;-27
2024/02/07 00:28:14;;;;;;;4.30;1.70;;;;;;;7.57;66.41;97268.96;108835;1263;58808;-26
2024/02/07 00:30:42;;;;;;;3.50;1.70;;;;;;;7.56;66.46;97260.25;108859;1263;60069;-27
2024/02/07 00:33:10;;;;;;;3.60;1.00;;;;;;;7.15;67.82;97255.71;108828;1263;73079;-27
2024/02/07 00:35:37;;;;;;;2.70;1.40;;;;;;;7.41;68.04;97258.11;108771;1263;74259;-27
2024/02/07 00:38:05;;;;;;;1.80;0.90;;;;;;;7.81;66.33;97256.74;108843;1262;71213;-27
2024/02/07 00:40:33;;;;;;;5.00;1.20;;;;;;;7.91;65.75;97256.14;108802;1263;59170;-26
2024/02/07 00:43:01;;;;;;;2.80;1.50;;;;;;;7.77;65.83;97252.53;108835;1263;58779;-27
2024/02/07 00:45:29;;;;;;;2.90;1.50;;;;;;;7.73;66.17;97251.15;108723;1268;73027;-27
2024/02/07 00:47:57;;;;;;;2.80;1.50;;;;;;;7.75;66.16;97251.54;108832;1263;74332;-27
2024/02/07 00:50:25;;;;;;;3.20;1.80;;;;;;;7.81;65.71;97245.17;108829;1264;71706;-27
2024/02/07 00:52:52;;;;;;;3.00;1.40;;;;;;;7.80;65.99;97245.30;108818;1262;58884;-27
2024/02/07 00:55:20;;;;;;;3.20;1.80;;;;;;;7.77;65.85;97243.66;109097;1257;59985;-27
2024/02/07 00:57:49;;;;;;;2.50;1.30;;;;;;;7.67;66.06;97237.96;109018;1257;73015;-26
2024/02/07 01:00:18;;;;;;;5.70;2.10;;;;;;;7.53;66.66;97235.32;109032;1257;74319;-26
2024/02/07 01:02:46;;;;;;;3.60;1.30;;;;;;;7.65;66.31;97226.90;108961;1257;71250;-26
2024/02/07 01:05:14;;;;;;;2.10;1.40;;;;;;;8.11;65.44;97232.20;109083;1257;58870;-27
2024/02/07 01:07:42;;;;;;;5.30;1.80;;;;;;;8.47;63.51;97229.65;108979;1257;60053;-26
2024/02/07 01:10:10;;;;;;;4.00;1.60;;;;;;;8.49;63.38;97217.36;109134;1257;73042;-27
2024/02/07 01:12:38;;;;;;;6.10;2.00;;;;;;;8.21;63.69;97220.02;109101;1257;73074;-27
2024/02/07 01:15:06;;;;;;;2.60;1.10;;;;;;;8.08;64.45;97214.05;109069;1257;72652;-26
2024/02/07 01:17:34;;;;;;;3.00;1.30;;;;;;;7.99;64.44;97208.67;108999;1259;60109;-26
2024/02/07 01:20:05;;;;;;;2.80;1.20;;;;;;;7.88;65.08;97208.52;109056;1257;59989;-26
2024/02/07 01:22:33;;;;;;;2.70;1.30;;;;;;;7.70;65.23;97192.73;109081;1257;72640;-27
2024/02/07 01:25:01;;;;;;;1.90;1.10;;;;;;;7.62;65.64;97190.70;109051;1257;74558;-28
2024/02/07 01:27:28;;;;;;;5.50;1.30;;;;;;;7.60;65.93;97191.95;109191;1254;72646;-27
2024/02/07 01:29:57;;;;;;;3.10;1.20;;;;;;;7.57;66.14;97191.58;109179;1257;59391;-26
2024/02/07 01:32:25;;;;;;;2.00;1.30;;;;;;;7.60;65.81;97188.84;109151;1254;59158;-27
2024/02/07 01:34:52;;;;;;;2.60;1.70;;;;;;;7.54;66.06;97186.67;109332;1254;73856;-27
2024/02/07 01:37:20;;;;;;;3.50;1.40;;;;;;;7.55;66.09;97190.69;109460;1254;74256;-27
2024/02/07 01:39:48;;;;;;;1.80;1.30;;;;;;;7.53;66.01;97179.52;109170;1254;72653;-27
2024/02/07 01:42:16;;;;;;;3.10;1.30;;;;;;;7.60;66.04;97185.91;109444;1254;58861;-27
2024/02/07 01:44:43;;;;;;;2.60;1.10;;;;;;;7.87;65.43;97167.38;109359;1254;60019;-27
2024/02/07 01:47:11;;;;;;;2.80;1.30;;;;;;;8.38;63.04;97173.20;109396;1254;73806;-27
2024/02/07 01:49:45;;;;;;;3.90;1.60;;;;;;;8.51;62.52;97179.54;109185;1254;74305;-26
2024/02/07 01:52:13;;;;;;;3.00;1.50;;;;;;;8.40;62.61;97178.61;109277;1254;72674;-27
2024/02/07 01:54:41;;;;;;;3.40;1.20;;;;;;;8.38;62.90;97182.36;109145;1254;58804;-27
2024/02/07 01:57:08;;;;;;;2.80;1.60;;;;;;;8.32;62.77;97178.27;109431;1254;60011;-27
2024/02/07 01:59:36;;;;;;;4.70;1.50;;;;;;;8.29;63.01;97172.84;109433;1254;71555;-26
2024/02/07 02:02:04;;;;;;;3.30;1.80;;;;;;;8.11;63.68;97166.35;109263;1254;74279;-27
2024/02/07 02:04:35;;;;;;;2.10;1.20;;;;;;;7.98;64.10;97161.79;109092;1257;71496;-26
2024/02/07 02:07:03;;;;;;;3.00;1.50;;;;;;;7.96;64.11;97158.77;109263;1254;59129;-26
2024/02/07 02:09:30;;;;;;;2.70;1.50;;;;;;;7.95;64.38;97155.56;109388;1254;59169;-26
2024/02/07 02:11:58;;;;;;;4.60;1.80;;;;;;;7.84;64.62;97149.05;109293;1254;73877;-26
2024/02/07 02:14:26;;;;;;;3.00;1.50;;;;;;;7.77;64.69;97142.98;109127;1254;74311;-27
2024/02/07 02:16:54;;;;;;;2.90;1.00;;;;;;;7.76;64.79;97137.27;109155;1254;71683;-27
2024/02/07 02:19:22;;;;;;;3.10;1.70;;;;;;;7.74;64.82;97141.88;109256;1256;58750;-26
2024/02/07 02:22:23;;;;;;;3.00;1.80;;;;;;;7.72;64.99;97142.13;109151;1254;59993;-26
2024/02/07 02:25:39;;;;;;;1.80;1.40;;;;;;;7.64;65.20;97134.41;109290;1254;73484;-26
2024/02/07 02:28:27;;;;;;;1.30;1.00;;;;;;;7.60;65.43;97139.49;108815;1254;74341;-27
2024/02/07 02:30:57;;;;;;;1.70;1.00;;;;;;;8.32;63.61;97137.77;109129;1254;71282;-26
2024/02/07 02:33:27;;;;;;;1.20;0.90;;;;;;;8.64;62.23;97138.43;109083;1257;60037;-27
2024/02/07 02:35:54;;;;;;;5.50;1.60;;;;;;;8.56;61.97;97143.35;109134;1254;58944;-27
2024/02/07 02:38:25;;;;;;;3.30;1.50;;;;;;;8.54;61.83;97138.23;109127;1254;72998;-27
2024/02/07 02:40:54;;;;;;;2.10;1.20;;;;;;;8.41;62.09;97136.21;109213;1254;74399;-27
2024/02/07 02:43:22;;;;;;;1.80;1.20;;;;;;;8.28;62.34;97124.21;109349;1254;72684;-27
2024/02/07 02:45:51;;;;;;;1.80;1.40;;;;;;;8.21;62.65;97131.71;109269;1254;59173;-26
2024/02/07 02:48:19;;;;;;;1.30;0.90;;;;;;;8.15;62.66;97123.66;109259;1254;60032;-27
2024/02/07 02:50:48;;;;;;;4.50;1.50;;;;;;;7.98;63.32;97128.84;109261;1254;74279;-26
2024/02/07 02:53:16;;;;;;;2.10;1.30;;;;;;;7.92;63.53;97123.22;109286;1254;74554;-27
2024/02/07 02:55:44;;;;;;;3.40;1.60;;;;;;;7.86;63.43;97113.43;109249;1254;72832;-27
2024/02/07 02:58:11;;;;;;;4.60;1.20;;;;;;;7.81;63.73;97121.52;109134;1254;58905;-26
2024/02/07 03:00:51;;;;;;;2.80;1.40;;;;;;;7.79;63.73;97111.34;109233;1255;58815;-27
2024/02/07 03:03:19;;;;;;;4.00;1.50;;;;;;;7.92;63.17;97117.02;109181;1256;73862;-26
2024/02/07 03:05:57;;;;;;;3.60;1.60;;;;;;;7.86;63.39;97116.54;109181;1256;73293;-27
2024/02/07 03:08:39;;;;;;;3.30;1.80;;;;;;;7.83;63.63;97114.89;109110;1255;72861;-27
2024/02/07 03:11:08;;;;;;;3.70;1.70;;;;;;;7.81;63.51;97107.49;109116;1256;58849;-27
2024/02/07 03:13:37;;;;;;;3.70;1.50;;;;;;;7.81;63.53;97106.61;109199;1256;58833;-27
2024/02/07 03:16:06;;;;;;;3.40;1.40;;;;;;;7.87;63.23;97107.91;109120;1256;73024;-26
2024/02/07 03:18:34;;;;;;;5.30;1.40;;;;;;;8.00;62.75;97106.14;109216;1256;73289;-27
2024/02/07 03:21:05;;;;;;;3.40;1.60;;;;;;;7.88;63.01;97097.27;109100;1260;72689;-27
2024/02/07 03:23:33;;;;;;;4.00;1.80;;;;;;;7.79;63.42;97096.84;109066;1256;59479;-26
2024/02/07 03:26:01;;;;;;;2.80;1.50;;;;;;;7.74;63.65;97094.05;109165;1255;59110;-26
2024/02/07 03:28:31;;;;;;;2.40;0.90;;;;;;;7.78;63.57;97084.51;109190;1256;72618;-27
2024/02/07 03:30:59;;;;;;;3.10;1.60;;;;;;;8.33;62.25;97080.66;109199;1256;74317;-27
2024/02/07 03:33:26;;;;;;;1.90;1.10;;;;;;;8.80;60.25;97073.56;109301;1256;72708;-27
2024/02/07 03:35:54;;;;;;;3.10;1.60;;;;;;;8.95;59.70;97073.06;109164;1256;58933;-27
2024/02/07 03:38:24;;;;;;;1.30;1.10;;;;;;;8.90;59.82;97075.80;109170;1256;62032;-27
2024/02/07 03:40:53;;;;;;;2.00;1.40;;;;;;;8.67;60.18;97071.14;109100;1255;72578;-27
2024/02/07 03:43:21;;;;;;;1.80;1.10;;;;;;;8.41;60.88;97065.67;109203;1255;74415;-27
2024/02/07 03:45:49;;;;;;;1.90;1.40;;;;;;;8.29;61.35;97063.47;109104;1256;72692;-27
2024/02/07 03:48:17;;;;;;;3.00;1.60;;;;;;;8.29;61.45;97052.73;109178;1255;58885;-27
2024/02/07 03:50:48;;;;;;;3.10;1.50;;;;;;;8.15;61.79;97049.27;109206;1255;59353;-26
2024/02/07 03:53:16;;;;;;;2.60;1.30;;;;;;;8.12;61.86;97051.33;109197;1256;73924;-27
2024/02/07 03:55:44;;;;;;;2.70;1.30;;;;;;;8.13;61.91;97051.41;109290;1255;74349;-27
2024/02/07 03:58:12;;;;;;;2.50;1.20;;;;;;;8.05;62.36;97034.92;109111;1256;73102;-27
2024/02/07 04:00:41;;;;;;;2.60;1.10;;;;;;;7.95;62.36;97035.11;109083;1256;59312;-27
2024/02/07 04:03:13;;;;;;;1.70;1.30;;;;;;;7.98;62.34;97040.02;109117;1256;58729;-26
2024/02/07 04:05:43;;;;;;;1.90;1.40;;;;;;;8.00;62.32;97035.83;109008;1256;73837;-27
2024/02/07 04:08:13;;;;;;;3.20;1.40;;;;;;;8.02;62.19;97041.50;109035;1256;74378;-27
2024/02/07 04:10:43;;;;;;;3.00;1.60;;;;;;;8.15;62.04;97039.10;109142;1256;72706;-27
2024/02/07 05:16:25;;;;;;;1.80;1.20;;;;;;;8.26;60.85;96983.02;105684;1254;71232;-26
2024/02/07 05:18:54;;;;;;;1.60;1.10;;;;;;;8.28;60.96;96987.65;105750;1259;74306;-26
2024/02/07 05:21:22;;;;;;;1.30;1.20;;;;;;;8.23;61.11;96988.00;105629;1258;170526;-26
2024/02/07 05:31:27;;;;;;;2.70;1.10;;;;;;;8.31;60.79;96975.05;102750;1292;600248;-25
2024/02/07 05:33:55;;;;;;;3.20;1.00;;;;;;;8.27;61.06;96978.94;105737;1252;61060;-25
2024/02/07 05:36:23;;;;;;;2.30;1.10;;;;;;;8.23;61.08;96972.12;105755;1259;61180;-27
2024/02/07 05:38:53;;;;;;;1.00;0.90;;;;;;;8.21;61.16;96973.23;105694;1253;72186;-27
2024/02/07 05:41:22;;;;;;;3.50;1.00;;;;;;;8.27;61.42;96971.70;105470;1254;74313;-27
2024/02/07 05:43:52;;;;;;;2.70;1.40;;;;;;;8.23;61.46;96972.58;105542;1254;72649;-27
2024/02/07 05:53:57;;;;;;;2.00;1.00;;;;;;;9.04;58.97;96958.61;102768;1292;600067;-26
2024/02/07 06:02:51;;;;;;;2.40;1.00;;;;;;;8.74;59.55;96951.77;102667;1294;599432;-26
2024/02/07 06:05:19;;;;;;;2.60;1.00;;;;;;;8.62;60.19;96947.31;104832;1268;61137;-25
2024/02/07 06:07:47;;;;;;;2.10;1.10;;;;;;;8.59;60.22;96960.93;104897;1270;62274;-25
2024/02/07 06:10:19;;;;;;;1.90;0.90;;;;;;;8.50;60.16;96944.59;105076;1269;71954;-25
2024/02/07 06:12:47;;;;;;;1.80;0.90;;;;;;;8.43;60.40;96942.14;105456;1263;74302;-25
2024/02/07 06:15:15;;;;;;;1.50;0.90;;;;;;;8.45;60.44;96953.55;105227;1261;72711;-26
2024/02/07 06:17:43;;;;;;;2.10;1.00;;;;;;;8.45;60.51;96955.66;105300;1257;61900;-27
2024/02/07 06:20:11;;;;;;;1.30;0.90;;;;;;;8.37;60.54;96940.69;105625;1257;61235;-26
2024/02/07 06:22:45;;;;;;;1.80;1.10;;;;;;;8.37;60.74;96950.77;105570;1261;72205;-26
2024/02/07 06:32:28;;;;;;;1.60;0.80;;;;;;;8.52;60.28;96950.60;102730;1292;600793;-25
2024/02/07 06:42:32;;;;;;;2.10;0.90;;;;;;;8.69;59.51;96950.52;102713;1293;600177;-26
2024/02/07 06:45:00;;;;;;;4.00;1.00;;;;;;;8.64;59.56;96955.38;104869;1265;61165;-27
2024/02/07 06:54:32;;;;;;;1.50;0.60;;;;;;;8.68;60.12;96959.82;102733;1294;599433;-26
2024/02/07 06:57:00;;;;;;;1.60;1.00;;;;;;;8.62;60.04;96949.02;105053;1265;61183;-27
2024/02/07 06:59:28;;;;;;;1.10;0.80;;;;;;;8.55;60.19;96942.29;104790;1281;61198;-27
2024/02/07 07:09:33;;;;;;;1.20;0.90;;;;;;;8.37;61.53;96964.39;102723;1292;600130;-27
2024/02/07 07:12:02;;;;;;;1.20;0.90;;;;;;;8.35;61.21;96958.20;104806;1264;61175;-27
2024/02/07 07:14:30;;;;;;;0.90;0.70;;;;;;;8.37;61.04;96950.56;104811;1264;62825;-27
2024/02/07 07:16:57;;;;;;;1.80;1.10;;;;;;;8.30;60.98;96959.10;105012;1269;75022;-27
2024/02/07 07:19:25;;;;;;;2.30;1.40;;;;;;;8.29;61.63;96962.50;104872;1270;76092;-27
2024/02/07 07:21:55;;;;;;;1.30;0.80;;;;;;;8.46;60.92;96953.11;105076;1266;74273;-27
2024/02/07 07:24:23;;;;;;;3.10;1.30;;;;;;;8.97;59.97;96945.64;104929;1268;250053;-26
2024/02/07 07:26:51;;;;;;;2.20;1.20;;;;;;;9.19;58.64;96948.47;104756;1263;61092;-27
2024/02/07 07:29:19;;;;;;;4.80;1.20;;;;;;;8.95;59.19;96938.55;104769;1263;73466;-27
2024/02/07 07:31:47;;;;;;;5.40;1.80;;;;;;;9.00;59.12;96940.48;104876;1263;77200;-27
2024/02/07 07:34:15;;;;;;;3.80;1.40;;;;;;;8.84;59.64;96945.16;104747;1264;75468;-27
2024/02/07 07:36:43;;;;;;;2.80;1.10;;;;;;;8.67;60.09;96933.33;104716;1265;61198;-27
2024/02/07 07:39:11;;;;;;;6.10;1.40;;;;;;;8.69;60.16;96936.70;104753;1263;61164;-27
2024/02/07 07:41:39;;;;;;;3.40;1.50;;;;;;;8.69;59.89;96917.14;104715;1263;74582;-27
2024/02/07 07:44:07;;;;;;;3.90;1.30;;;;;;;8.61;60.22;96927.69;104759;1268;77336;-27
2024/02/07 07:46:35;;;;;;;3.20;1.30;;;;;;;8.56;60.13;96923.59;104727;1263;74175;-27
2024/02/07 07:49:03;;;;;;;5.10;1.60;;;;;;;8.50;60.93;96931.45;104825;1263;61135;-27
2024/02/07 07:51:32;;;;;;;1.50;1.10;;;;;;;8.52;60.93;96926.72;104987;1263;63300;-27
2024/02/07 07:53:59;;;;;;;2.60;1.80;;;;;;;8.58;60.40;96928.90;104923;1263;73204;-26
2024/02/07 07:56:31;;;;;;;3.10;1.50;;;;;;;8.56;60.45;96920.63;104812;1270;75806;-26
2024/02/07 07:58:59;;;;;;;5.10;1.70;;;;;;;8.61;60.36;96932.69;105473;1260;75422;-27
2024/02/07 08:01:27;;;;;;;1.70;1.20;;;;;;;8.59;60.39;96932.27;105163;1262;61142;-27
2024/02/07 08:03:55;;;;;;;1.90;1.40;;;;;;;8.53;60.10;96917.48;105166;1262;62828;-26
2024/02/07 08:06:23;;;;;;;3.70;1.70;;;;;;;8.58;60.10;96929.35;105269;1260;75787;-26
2024/02/07 08:08:51;;;;;;;2.30;1.50;;;;;;;8.61;60.49;96934.36;105242;1260;74376;-26
2024/02/07 08:11:19;;;;;;;2.30;1.50;;;;;;;8.58;60.49;96928.17;105220;1258;73273;-27
2024/02/07 08:13:47;;;;;;;5.60;2.00;;;;;;;8.58;60.47;96917.67;105667;1253;61157;-26
2024/02/07 08:23:50;;;;;;;4.00;1.40;;;;;;;8.63;60.67;96912.80;102750;1293;598689;-27
2024/02/07 08:26:19;;;;;;;2.10;1.30;;;;;;;8.85;60.14;96917.04;105045;1268;61186;-24
2024/02/07 08:28:47;;;;;;;4.40;2.00;;;;;;;8.78;60.16;96914.42;105216;1265;62919;-27
2024/02/07 08:31:16;;;;;;;1.10;0.90;;;;;;;8.73;60.18;96904.22;105198;1265;72192;-27
2024/02/07 08:33:44;;;;;;;2.50;1.30;;;;;;;8.84;60.56;96909.98;105252;1265;74294;-27
2024/02/07 08:36:12;;;;;;;4.90;2.40;;;;;;;8.81;60.12;96902.55;105284;1263;74398;-27
2024/02/07 08:38:43;;;;;;;4.20;1.80;;;;;;;8.73;60.31;96903.70;105212;1260;61703;-24
2024/02/07 08:41:11;;;;;;;4.20;1.70;;;;;;;8.67;60.87;96902.96;105400;1262;61225;-25
2024/02/07 08:43:39;;;;;;;1.70;1.10;;;;;;;8.63;61.14;96902.90;105399;1260;71437;-26
2024/02/07 08:46:06;;;;;;;3.60;1.70;;;;;;;8.68;60.64;96887.70;105222;1260;76184;-26
2024/02/07 08:48:34;;;;;;;1.60;1.00;;;;;;;8.79;60.74;96896.73;105311;1260;75249;-26
2024/02/07 08:51:03;;;;;;;2.50;1.20;;;;;;;8.81;60.37;96872.92;105430;1258;61268;-25
2024/02/07 08:53:31;;;;;;;3.70;1.30;;;;;;;8.81;60.72;96894.20;105689;1259;62784;-25
2024/02/07 08:55:58;;;;;;;2.60;1.30;;;;;;;8.82;60.33;96883.77;105509;1259;73782;-25
2024/02/07 08:58:27;;;;;;;4.60;1.90;;;;;;;8.85;60.46;96891.91;105453;1259;77225;-26
2024/02/07 09:00:54;;;;;;;1.40;1.10;;;;;;;8.78;60.47;96881.21;105403;1259;71630;-25
2024/02/07 09:03:27;;;;;;;2.90;1.70;;;;;;;8.71;60.86;96880.94;105207;1257;61047;-26
2024/02/07 09:05:55;;;;;;;5.20;1.60;;;;;;;8.68;61.45;96883.47;105376;1257;61841;-25
2024/02/07 09:08:23;;;;;;;6.10;1.50;;;;;;;8.71;60.82;96884.27;105632;1256;71846;-26
2024/02/07 09:10:51;;;;;;;2.40;1.50;;;;;;;8.74;60.97;96888.23;105558;1260;77435;-25
2024/02/07 09:13:19;;;;;;;6.70;1.70;;;;;;;8.85;60.73;96891.60;105529;1257;75418;-26
2024/02/07 09:15:47;;;;;;;4.90;1.70;;;;;;;8.80;60.63;96884.84;105321;1261;61263;-25
2024/02/07 09:18:15;;;;;;;1.70;1.10;;;;;;;8.79;61.21;96891.14;105533;1256;61167;-26
2024/02/07 09:20:43;;;;;;;2.10;1.20;;;;;;;8.74;60.88;96887.19;105612;1256;75881;-25
2024/02/07 09:23:11;;;;;;;4.50;1.60;;;;;;;8.84;60.94;96880.05;105588;1260;75360;-25
2024/02/07 09:25:39;;;;;;;2.40;1.20;;;;;;;8.87;60.77;96875.46;105541;1256;70481;-25
2024/02/07 09:28:07;;;;;;;1.90;1.20;;;;;;;8.89;60.82;96885.18;105593;1257;61129;-26
2024/02/07 09:38:21;;;;;;;3.10;1.30;;;;;;;8.99;61.09;96878.15;102803;1290;600002;-26
2024/02/07 09:40:50;;;;;;;2.60;1.40;;;;;;;8.96;61.12;96881.05;105082;1267;61125;-26
2024/02/07 09:43:19;;;;;;;1.70;1.30;;;;;;;8.94;61.13;96872.10;104899;1264;62843;-26
2024/02/07 09:45:47;;;;;;;1.80;1.10;;;;;;;9.01;60.85;96877.04;105169;1269;73960;-26
2024/02/07 09:48:20;;;;;;;6.50;1.70;;;;;;;9.05;60.97;96869.95;104866;1267;75992;-25
2024/02/07 10:10:23;;;;;;;1.30;0.90;;;;;;;9.22;60.83;96839.59;105200;1267;73664;-27
2024/02/07 10:12:56;;;;;;;1.60;1.40;;;;;;;9.26;60.37;96836.52;104781;1264;77213;-27
2024/02/07 10:15:24;;;;;;;1.80;1.30;;;;;;;9.27;60.50;96844.71;104789;1264;74545;-26
2024/02/07 10:17:53;;;;;;;2.50;1.40;;;;;;;9.28;60.57;96846.17;104747;1264;61170;-26
2024/02/07 10:20:21;;;;;;;3.70;1.20;;;;;;;9.24;59.91;96828.45;105469;1254;62750;-27
2024/02/07 10:22:49;;;;;;;4.40;1.10;;;;;;;9.31;60.06;96841.35;105668;1256;75752;-27
2024/02/07 10:25:17;;;;;;;3.70;1.20;;;;;;;9.33;59.73;96835.59;105669;1254;77005;-26
2024/02/07 10:27:45;;;;;;;4.90;1.50;;;;;;;9.38;59.47;96839.88;105541;1259;75555;-26
2024/02/07 10:30:13;;;;;;;8.00;1.50;;;;;;;9.34;59.57;96826.63;105657;1254;61083;-25
2024/02/07 10:32:41;;;;;;;2.80;1.70;;;;;;;9.42;59.23;96830.87;105497;1258;62400;-25
2024/02/07 10:35:10;;;;;;;4.50;1.20;;;;;;;9.52;59.12;96825.41;105578;1256;74994;-26
2024/02/07 10:37:40;;;;;;;2.10;1.20;;;;;;;9.51;58.27;96820.05;105534;1259;76048;-25
2024/02/07 10:41:48;;;;;;;2.70;1.30;;;;;;;9.51;58.22;96809.21;102635;1293;600757;-27
2024/02/07 10:44:17;;;;;;;2.80;1.40;;;;;;;9.67;58.05;96814.33;104826;1273;62514;-27
2024/02/07 10:46:45;;;;;;;4.30;1.60;;;;;;;9.67;57.69;96813.64;104888;1266;61576;-27
2024/02/07 10:49:13;;;;;;;4.50;1.60;;;;;;;9.71;57.53;96822.39;104771;1270;73398;-27
2024/02/07 10:51:42;;;;;;;2.80;1.40;;;;;;;9.80;58.15;96813.02;104827;1269;77178;-28
2024/02/07 10:54:10;;;;;;;2.20;1.20;;;;;;;9.83;57.78;96821.39;104832;1269;75416;-27
2024/02/07 10:56:37;;;;;;;4.00;1.70;;;;;;;9.90;57.74;96824.77;105001;1264;181798;-25
2024/02/07 10:59:05;;;;;;;2.50;1.40;;;;;;;9.93;57.68;96823.38;105154;1263;61871;-26
2024/02/07 11:01:34;;;;;;;5.50;1.30;;;;;;;9.96;57.00;96814.48;105579;1256;73436;-25
2024/02/07 11:04:02;;;;;;;2.10;1.10;;;;;;;9.97;56.75;96819.45;105604;1256;76756;-25
2024/02/07 11:06:32;;;;;;;2.20;1.20;;;;;;;10.04;56.32;96810.00;105399;1265;73383;-25
2024/02/07 11:09:02;;;;;;;1.40;1.00;;;;;;;10.19;56.16;96817.81;105642;1260;62492;-25
2024/02/07 11:11:30;;;;;;;2.10;1.30;;;;;;;10.23;56.08;96817.55;105585;1262;62714;-25
2024/02/07 11:13:58;;;;;;;2.60;1.50;;;;;;;10.18;56.34;96804.71;105601;1256;75583;-25
2024/02/07 11:16:26;;;;;;;2.30;1.10;;;;;;;10.05;56.57;96817.77;105629;1261;76521;-25
2024/02/07 11:18:54;;;;;;;1.80;1.00;;;;;;;10.11;56.59;96816.30;105406;1261;75438;-25
2024/02/07 11:21:34;;;;;;;1.50;1.20;;;;;;;10.17;55.86;96807.27;105388;1258;61902;-27
2024/02/07 11:24:02;;;;;;;1.30;1.00;;;;;;;9.96;56.44;96809.70;105230;1262;62855;-27
2024/02/07 11:26:30;;;;;;;3.90;1.20;;;;;;;9.88;57.08;96805.94;105153;1263;75857;-26
2024/02/07 11:28:57;;;;;;;2.00;1.20;;;;;;;9.82;56.96;96809.89;105341;1257;77048;-26
2024/02/07 11:31:25;;;;;;;2.60;1.40;;;;;;;9.79;56.87;96803.63;105574;1260;74008;-27
2024/02/07 11:33:56;;;;;;;2.90;1.10;;;;;;;9.87;56.78;96810.65;105573;1257;61926;-26
2024/02/07 11:36:26;;;;;;;2.20;1.20;;;;;;;9.78;56.61;96779.14;105356;1263;62745;-26
2024/02/07 11:38:54;;;;;;;2.70;1.20;;;;;;;9.81;56.48;96809.17;105120;1264;75618;-26
2024/02/07 11:41:22;;;;;;;3.50;1.10;;;;;;;9.79;56.69;96782.52;105581;1260;74087;-27
2024/02/07 11:43:53;;;;;;;2.30;0.80;;;;;;;9.75;56.70;96793.86;105619;1261;75172;-27
2024/02/07 11:46:23;;;;;;;1.80;1.10;;;;;;;9.96;56.52;96811.77;105582;1257;61951;-27
2024/02/07 11:48:53;;;;;;;2.40;1.40;;;;;;;9.89;56.46;96813.92;105664;1256;61054;-27
2024/02/07 11:51:24;;;;;;;1.60;0.90;;;;;;;9.88;56.55;96781.08;105202;1264;74451;-27
2024/02/07 11:53:57;;;;;;;2.20;1.10;;;;;;;9.92;56.48;96803.14;105291;1261;76019;-27
2024/02/07 11:56:26;;;;;;;4.50;1.20;;;;;;;10.00;56.79;96800.08;105445;1263;73495;-27
2024/02/07 11:58:54;;;;;;;1.20;0.70;;;;;;;9.90;57.39;96809.50;105691;1258;62287;-27
2024/02/07 12:01:25;;;;;;;2.80;1.20;;;;;;;9.89;57.22;96804.73;105629;1254;61737;-27
2024/02/07 12:03:55;;;;;;;1.90;1.20;;;;;;;9.84;57.05;96778.45;105679;1262;75540;-27
2024/02/07 12:06:23;;;;;;;2.30;1.00;;;;;;;9.79;57.42;96797.80;105540;1260;77194;-27
2024/02/07 12:08:52;;;;;;;3.90;1.20;;;;;;;9.74;57.37;96792.47;105608;1259;74432;-27
2024/02/07 12:11:20;;;;;;;3.00;1.10;;;;;;;9.72;57.90;96786.75;105640;1259;61045;-27
2024/02/07 12:13:49;;;;;;;3.50;1.20;;;;;;;9.70;58.56;96797.55;105664;1259;61804;-27
2024/02/07 12:16:19;;;;;;;2.10;1.00;;;;;;;9.64;59.31;96799.08;105614;1258;74155;-27
2024/02/07 12:18:47;;;;;;;2.70;1.30;;;;;;;9.64;58.64;96786.27;105477;1260;76761;-27
2024/02/07 12:21:15;;;;;;;2.60;1.10;;;;;;;9.61;59.44;96796.48;105531;1259;75486;-27
2024/02/07 12:23:43;;;;;;;1.70;0.70;;;;;;;9.58;60.69;96793.64;105633;1259;62975;-27
2024/02/07 12:26:14;;;;;;;1.70;0.80;;;;;;;9.34;61.15;96750.59;105556;1263;62941;-27
2024/02/07 12:28:42;;;;;;;4.90;1.10;;;;;;;9.31;62.34;96789.92;105187;1263;74733;-27
2024/02/07 12:31:10;;;;;;;7.00;2.40;;;;;;;9.39;62.01;96793.38;105534;1262;75803;-27
2024/02/07 12:33:38;;;;;;;1.50;1.00;;;;;;;9.44;61.71;96792.48;105615;1260;73792;-27
2024/02/07 12:36:07;;;;;;;2.40;1.20;;;;;;;9.92;59.98;96780.85;105607;1258;61756;-27
2024/02/07 12:38:35;;;;;;;3.40;1.20;;;;;;;10.28;59.03;96793.89;105391;1258;61201;-27
2024/02/07 12:41:04;;;;;;;3.70;1.50;;;;;;;10.40;58.51;96794.96;105603;1260;75656;-27
2024/02/07 12:43:33;;;;;;;1.00;0.60;;;;;;;10.18;59.13;96790.88;105687;1258;77150;-27
2024/02/07 12:46:02;;;;;;;1.20;0.90;;;;;;;10.06;58.92;96795.36;105730;1258;75403;-27
2024/02/07 12:48:30;;;;;;;4.50;1.50;;;;;;;10.01;58.77;96797.83;105612;1260;61881;-27
2024/02/07 12:50:59;;;;;;;2.40;1.20;;;;;;;9.99;59.24;96804.48;105592;1259;61522;-27
2024/02/07 12:53:27;;;;;;;2.80;1.00;;;;;;;9.85;58.59;96778.90;105642;1264;74291;-27
2024/02/07 12:55:55;;;;;;;3.60;1.10;;;;;;;9.85;58.84;96795.83;105683;1259;76219;-27
2024/02/07 12:58:23;;;;;;;3.10;1.20;;;;;;;9.83;59.02;96804.90;105600;1260;75432;-26
2024/02/07 13:01:04;;;;;;;2.10;1.10;;;;;;;9.95;58.65;96797.85;105779;1259;62393;-28
2024/02/07 13:03:33;;;;;;;3.20;0.90;;;;;;;9.86;58.83;96793.77;105716;1259;63296;-26
2024/02/07 13:06:01;;;;;;;1.70;1.00;;;;;;;9.88;58.61;96789.52;105587;1261;75753;-26
2024/02/07 13:08:29;;;;;;;2.20;1.20;;;;;;;9.78;59.39;96798.19;105781;1257;76753;-26
2024/02/07 13:10:58;;;;;;;2.00;1.20;;;;;;;9.88;58.78;96793.46;105592;1259;72248;-26
2024/02/07 13:13:27;;;;;;;2.80;1.20;;;;;;;9.86;59.52;96798.96;105860;1258;62811;-26
2024/02/07 13:15:58;;;;;;;3.70;1.20;;;;;;;9.73;59.60;96795.34;105892;1259;62691;-26
2024/02/07 13:18:26;;;;;;;2.70;0.80;;;;;;;9.80;59.48;96800.44;105584;1254;75817;-26
2024/02/07 13:20:54;;;;;;;2.80;1.50;;;;;;;9.84;59.03;96792.30;105387;1260;75740;-26
2024/02/07 13:23:28;;;;;;;2.40;1.10;;;;;;;9.80;59.27;96799.48;105239;1270;74491;-26
2024/02/07 13:25:57;;;;;;;4.50;1.50;;;;;;;9.81;59.50;96789.72;105480;1258;61718;-27
2024/02/07 13:28:27;;;;;;;1.20;0.80;;;;;;;9.73;59.96;96793.70;105654;1260;62920;-26
2024/02/07 13:30:56;;;;;;;1.90;1.10;;;;;;;9.69;59.98;96789.33;105642;1260;75045;-26
2024/02/07 13:33:25;;;;;;;1.60;0.90;;;;;;;9.59;61.09;96788.85;105296;1254;73865;-26
2024/02/07 13:35:53;;;;;;;5.00;0.90;;;;;;;10.03;60.06;96797.28;105473;1254;75466;-26
2024/02/07 13:38:21;;;;;;;3.70;1.00;;;;;;;10.27;58.93;96781.52;105503;1260;62110;-29
2024/02/07 13:41:03;;;;;;;1.20;0.90;;;;;;;10.30;58.67;96785.33;105682;1254;61579;-26
2024/02/07 13:43:31;;;;;;;1.20;0.90;;;;;;;10.20;58.79;96786.79;105318;1254;75808;-26
2024/02/07 13:45:59;;;;;;;3.50;1.20;;;;;;;10.12;58.56;96790.00;105549;1254;77073;-26
2024/02/07 13:48:28;;;;;;;3.20;1.10;;;;;;;10.10;58.96;96788.77;105599;1254;72750;-26
2024/02/07 13:50:58;;;;;;;3.60;1.30;;;;;;;9.89;60.02;96795.45;105705;1255;62893;-26
2024/02/07 13:53:27;;;;;;;4.80;1.20;;;;;;;9.65;61.87;96804.02;105622;1255;62869;-26
2024/02/07 13:55:56;;;;;;;1.50;0.90;;;;;;;9.55;62.76;96803.05;105683;1260;75688;-26
2024/02/07 13:58:25;;;;;;;2.80;1.20;;;;;;;9.40;62.95;96780.41;105701;1259;75985;-26
2024/02/07 14:00:54;;;;;;;1.60;1.10;;;;;;;9.22;63.92;96784.73;105889;1254;74432;-26
2024/02/07 14:03:22;;;;;;;2.10;1.10;;;;;;;9.31;64.28;96796.00;105725;1254;63538;-28
2024/02/07 14:05:51;;;;;;;1.30;0.70;;;;;;;9.62;63.64;96783.52;105726;1254;61803;-26
2024/02/07 14:08:19;;;;;;;1.20;1.00;;;;;;;9.63;63.52;96790.74;105629;1258;74741;-26
2024/02/07 14:10:47;;;;;;;2.50;1.20;;;;;;;9.42;63.88;96774.37;105763;1254;75956;-27